sensor_id;sensor_type;location;lat;lon;timestamp;P1;durP1;ratioP1;P2;durP2;ratioP2
46613;SDS011;32338;50.430;6.806;2023-03-16T00:02:23;6.47;;;2.00;;
46613;SDS011;32338;50.430;6.806;2023-03-16T00:04:49;4.57;;;2.60;;
46613;SDS011;32338;50.430;6.806;2023-03-16T00:07:16;2.47;;;2.05;;
46613;SDS011;32338;50.430;6.806;2023-03-16T00:09:43;5.53;;;3.20;;
46613;SDS011;32338;50.430;6.806;2023-03-16T00:12:11;4.88;;;2.08;;
46613;SDS011;32338;50.430;6.806;2023-03-16T00:14:40;4.10;;;1.98;;
46613;SDS011;32338;50.430;6.806;2023-03-16T00:17:07;5.65;;;2.90;;
46613;SDS011;32338;50.430;6.806;2023-03-16T00:19:36;3.83;;;2.78;;
46613;SDS011;32338;50.430;6.806;2023-03-16T00:22:02;5.93;;;2.30;;
46613;SDS011;32338;50.430;6.806;2023-03-16T00:24:29;3.85;;;2.30;;
46613;SDS011;32338;50.430;6.806;2023-03-16T00:26:56;3.00;;;2.50;;
46613;SDS011;32338;50.430;6.806;2023-03-16T00:29:22;3.38;;;2.60;;
46613;SDS011;32338;50.430;6.806;2023-03-16T00:31:49;3.17;;;2.63;;
46613;SDS011;32338;50.430;6.806;2023-03-16T00:34:16;3.22;;;2.33;;
46613;SDS011;32338;50.430;6.806;2023-03-16T00:36:44;2.30;;;2.03;;
46613;SDS011;32338;50.430;6.806;2023-03-16T00:39:11;5.60;;;2.25;;
46613;SDS011;32338;50.430;6.806;2023-03-16T00:41:38;3.92;;;2.80;;
46613;SDS011;32338;50.430;6.806;2023-03-16T00:44:05;2.10;;;1.83;;
46613;SDS011;32338;50.430;6.806;2023-03-16T00:46:33;3.45;;;2.65;;
46613;SDS011;32338;50.430;6.806;2023-03-16T00:49:00;2.45;;;2.25;;
46613;SDS011;32338;50.430;6.806;2023-03-16T00:51:33;4.10;;;2.75;;
46613;SDS011;32338;50.430;6.806;2023-03-16T00:54:01;2.35;;;2.15;;
46613;SDS011;32338;50.430;6.806;2023-03-16T00:56:29;4.18;;;2.70;;
46613;SDS011;32338;50.430;6.806;2023-03-16T00:58:56;3.53;;;2.60;;
46613;SDS011;32338;50.430;6.806;2023-03-16T01:01:22;2.38;;;2.17;;
46613;SDS011;32338;50.430;6.806;2023-03-16T01:03:49;3.83;;;2.33;;
46613;SDS011;32338;50.430;6.806;2023-03-16T01:06:16;4.03;;;2.38;;
46613;SDS011;32338;50.430;6.806;2023-03-16T01:08:44;4.97;;;2.38;;
46613;SDS011;32338;50.430;6.806;2023-03-16T01:11:13;3.72;;;2.40;;
46613;SDS011;32338;50.430;6.806;2023-03-16T01:13:42;4.68;;;2.38;;
46613;SDS011;32338;50.430;6.806;2023-03-16T01:16:11;3.28;;;2.50;;
46613;SDS011;32338;50.430;6.806;2023-03-16T01:18:37;7.07;;;2.70;;
46613;SDS011;32338;50.430;6.806;2023-03-16T01:21:05;5.05;;;2.60;;
46613;SDS011;32338;50.430;6.806;2023-03-16T01:23:33;2.90;;;2.22;;
46613;SDS011;32338;50.430;6.806;2023-03-16T01:26:00;4.13;;;2.13;;
46613;SDS011;32338;50.430;6.806;2023-03-16T01:28:29;7.72;;;2.47;;
46613;SDS011;32338;50.430;6.806;2023-03-16T01:30:58;3.05;;;2.30;;
46613;SDS011;32338;50.430;6.806;2023-03-16T01:33:27;4.07;;;2.47;;
46613;SDS011;32338;50.430;6.806;2023-03-16T01:35:54;5.63;;;2.33;;
46613;SDS011;32338;50.430;6.806;2023-03-16T01:38:23;5.05;;;2.25;;
46613;SDS011;32338;50.430;6.806;2023-03-16T01:40:50;3.15;;;1.92;;
46613;SDS011;32338;50.430;6.806;2023-03-16T01:43:18;3.60;;;2.10;;
46613;SDS011;32338;50.430;6.806;2023-03-16T01:48:46;3.05;;;2.40;;
46613;SDS011;32338;50.430;6.806;2023-03-16T01:51:22;2.85;;;2.30;;
46613;SDS011;32338;50.430;6.806;2023-03-16T01:53:53;2.65;;;1.80;;
46613;SDS011;32338;50.430;6.806;2023-03-16T01:56:23;2.55;;;2.35;;
46613;SDS011;32338;50.430;6.806;2023-03-16T01:58:52;3.17;;;2.28;;
46613;SDS011;32338;50.430;6.806;2023-03-16T02:01:24;6.65;;;1.92;;
46613;SDS011;32338;50.430;6.806;2023-03-16T02:03:54;6.43;;;2.33;;
46613;SDS011;32338;50.430;6.806;2023-03-16T02:06:25;2.80;;;2.30;;
46613;SDS011;32338;50.430;6.806;2023-03-16T02:08:52;7.78;;;2.35;;
46613;SDS011;32338;50.430;6.806;2023-03-16T02:11:22;3.80;;;2.33;;
46613;SDS011;32338;50.430;6.806;2023-03-16T02:13:49;2.35;;;2.10;;
46613;SDS011;32338;50.430;6.806;2023-03-16T02:16:17;2.65;;;2.13;;
46613;SDS011;32338;50.430;6.806;2023-03-16T02:18:48;3.42;;;1.80;;
46613;SDS011;32338;50.430;6.806;2023-03-16T02:21:18;3.42;;;2.00;;
46613;SDS011;32338;50.430;6.806;2023-03-16T02:23:51;2.03;;;1.50;;
46613;SDS011;32338;50.430;6.806;2023-03-16T02:26:19;4.05;;;1.50;;
46613;SDS011;32338;50.430;6.806;2023-03-16T02:28:53;4.70;;;2.05;;
46613;SDS011;32338;50.430;6.806;2023-03-16T02:31:34;1.85;;;1.50;;
46613;SDS011;32338;50.430;6.806;2023-03-16T02:34:01;2.97;;;2.40;;
46613;SDS011;32338;50.430;6.806;2023-03-16T02:36:29;2.72;;;1.95;;
46613;SDS011;32338;50.430;6.806;2023-03-16T02:38:57;2.75;;;1.60;;
46613;SDS011;32338;50.430;6.806;2023-03-16T02:41:24;3.05;;;1.83;;
46613;SDS011;32338;50.430;6.806;2023-03-16T02:43:52;3.45;;;2.10;;
46613;SDS011;32338;50.430;6.806;2023-03-16T02:46:24;3.80;;;2.17;;
46613;SDS011;32338;50.430;6.806;2023-03-16T02:48:56;3.05;;;2.20;;
46613;SDS011;32338;50.430;6.806;2023-03-16T02:51:27;3.22;;;2.40;;
46613;SDS011;32338;50.430;6.806;2023-03-16T02:53:53;2.70;;;2.50;;
46613;SDS011;32338;50.430;6.806;2023-03-16T02:56:20;2.75;;;1.42;;
46613;SDS011;32338;50.430;6.806;2023-03-16T02:58:47;3.20;;;1.75;;
46613;SDS011;32338;50.430;6.806;2023-03-16T03:01:14;3.67;;;1.83;;
46613;SDS011;32338;50.430;6.806;2023-03-16T03:03:41;2.50;;;2.00;;
46613;SDS011;32338;50.430;6.806;2023-03-16T03:06:09;3.42;;;2.10;;
46613;SDS011;32338;50.430;6.806;2023-03-16T03:08:36;3.30;;;1.80;;
46613;SDS011;32338;50.430;6.806;2023-03-16T03:11:03;2.42;;;2.22;;
46613;SDS011;32338;50.430;6.806;2023-03-16T03:13:29;3.75;;;2.10;;
46613;SDS011;32338;50.430;6.806;2023-03-16T03:15:56;1.73;;;1.63;;
46613;SDS011;32338;50.430;6.806;2023-03-16T03:18:24;2.42;;;1.73;;
46613;SDS011;32338;50.430;6.806;2023-03-16T03:20:50;3.28;;;2.42;;
46613;SDS011;32338;50.430;6.806;2023-03-16T03:23:19;2.75;;;1.90;;
46613;SDS011;32338;50.430;6.806;2023-03-16T03:25:45;5.00;;;2.28;;
46613;SDS011;32338;50.430;6.806;2023-03-16T03:28:13;2.72;;;2.08;;
46613;SDS011;32338;50.430;6.806;2023-03-16T03:30:39;3.83;;;2.05;;
46613;SDS011;32338;50.430;6.806;2023-03-16T03:33:06;3.33;;;2.40;;
46613;SDS011;32338;50.430;6.806;2023-03-16T03:35:33;3.97;;;2.33;;
46613;SDS011;32338;50.430;6.806;2023-03-16T03:38:00;3.95;;;2.30;;
46613;SDS011;32338;50.430;6.806;2023-03-16T03:40:28;3.28;;;1.92;;
46613;SDS011;32338;50.430;6.806;2023-03-16T03:42:54;3.30;;;2.53;;
46613;SDS011;32338;50.430;6.806;2023-03-16T03:45:21;2.67;;;2.05;;
46613;SDS011;32338;50.430;6.806;2023-03-16T03:47:48;3.92;;;2.22;;
46613;SDS011;32338;50.430;6.806;2023-03-16T03:50:15;3.38;;;1.80;;
46613;SDS011;32338;50.430;6.806;2023-03-16T03:52:42;4.03;;;1.95;;
46613;SDS011;32338;50.430;6.806;2023-03-16T03:55:08;3.85;;;2.15;;
46613;SDS011;32338;50.430;6.806;2023-03-16T03:57:37;5.05;;;2.65;;
46613;SDS011;32338;50.430;6.806;2023-03-16T04:00:04;4.90;;;2.50;;
46613;SDS011;32338;50.430;6.806;2023-03-16T04:02:35;3.95;;;2.95;;
46613;SDS011;32338;50.430;6.806;2023-03-16T04:05:02;7.82;;;2.60;;
46613;SDS011;32338;50.430;6.806;2023-03-16T04:07:29;5.95;;;2.38;;
46613;SDS011;32338;50.430;6.806;2023-03-16T04:09:56;2.50;;;2.22;;
46613;SDS011;32338;50.430;6.806;2023-03-16T04:12:22;1.77;;;1.67;;
46613;SDS011;32338;50.430;6.806;2023-03-16T04:14:50;2.42;;;2.03;;
46613;SDS011;32338;50.430;6.806;2023-03-16T04:17:17;2.75;;;1.70;;
46613;SDS011;32338;50.430;6.806;2023-03-16T04:19:44;2.15;;;1.92;;
46613;SDS011;32338;50.430;6.806;2023-03-16T04:22:11;7.30;;;2.80;;
46613;SDS011;32338;50.430;6.806;2023-03-16T04:24:38;4.32;;;2.58;;
46613;SDS011;32338;50.430;6.806;2023-03-16T04:27:07;6.20;;;2.58;;
46613;SDS011;32338;50.430;6.806;2023-03-16T04:29:36;3.00;;;2.80;;
46613;SDS011;32338;50.430;6.806;2023-03-16T04:32:04;3.03;;;2.38;;
46613;SDS011;32338;50.430;6.806;2023-03-16T04:34:31;8.07;;;2.53;;
46613;SDS011;32338;50.430;6.806;2023-03-16T04:36:57;1.65;;;1.55;;
46613;SDS011;32338;50.430;6.806;2023-03-16T04:39:24;2.85;;;2.00;;
46613;SDS011;32338;50.430;6.806;2023-03-16T04:41:50;2.42;;;2.00;;
46613;SDS011;32338;50.430;6.806;2023-03-16T04:44:17;5.35;;;2.25;;
46613;SDS011;32338;50.430;6.806;2023-03-16T04:46:44;3.55;;;2.00;;
46613;SDS011;32338;50.430;6.806;2023-03-16T04:49:12;2.33;;;2.00;;
46613;SDS011;32338;50.430;6.806;2023-03-16T04:51:39;2.47;;;2.28;;
46613;SDS011;32338;50.430;6.806;2023-03-16T04:54:06;4.90;;;2.10;;
46613;SDS011;32338;50.430;6.806;2023-03-16T04:56:33;4.68;;;2.28;;
46613;SDS011;32338;50.430;6.806;2023-03-16T04:59:00;5.45;;;2.53;;
46613;SDS011;32338;50.430;6.806;2023-03-16T05:01:26;3.95;;;2.40;;
46613;SDS011;32338;50.430;6.806;2023-03-16T05:03:53;3.03;;;2.45;;
46613;SDS011;32338;50.430;6.806;2023-03-16T05:06:21;7.07;;;2.50;;
46613;SDS011;32338;50.430;6.806;2023-03-16T05:08:48;4.45;;;3.95;;
46613;SDS011;32338;50.430;6.806;2023-03-16T05:11:14;8.10;;;3.30;;
46613;SDS011;32338;50.430;6.806;2023-03-16T05:13:41;4.88;;;3.35;;
46613;SDS011;32338;50.430;6.806;2023-03-16T05:16:07;6.57;;;3.28;;
46613;SDS011;32338;50.430;6.806;2023-03-16T05:18:34;5.43;;;4.43;;
46613;SDS011;32338;50.430;6.806;2023-03-16T05:21:00;7.70;;;4.28;;
46613;SDS011;32338;50.430;6.806;2023-03-16T05:23:28;7.00;;;4.38;;
46613;SDS011;32338;50.430;6.806;2023-03-16T05:25:55;7.70;;;4.90;;
46613;SDS011;32338;50.430;6.806;2023-03-16T05:28:25;7.20;;;4.63;;
46613;SDS011;32338;50.430;6.806;2023-03-16T05:30:51;6.18;;;4.60;;
46613;SDS011;32338;50.430;6.806;2023-03-16T05:33:18;5.63;;;4.60;;
46613;SDS011;32338;50.430;6.806;2023-03-16T05:35:45;10.35;;;5.55;;
46613;SDS011;32338;50.430;6.806;2023-03-16T05:38:12;6.18;;;4.93;;
46613;SDS011;32338;50.430;6.806;2023-03-16T05:40:41;6.38;;;4.78;;
46613;SDS011;32338;50.430;6.806;2023-03-16T05:43:08;8.00;;;5.65;;
46613;SDS011;32338;50.430;6.806;2023-03-16T05:45:34;7.70;;;4.85;;
46613;SDS011;32338;50.430;6.806;2023-03-16T05:48:01;7.68;;;5.13;;
46613;SDS011;32338;50.430;6.806;2023-03-16T05:50:29;5.78;;;5.05;;
46613;SDS011;32338;50.430;6.806;2023-03-16T05:52:56;6.00;;;5.40;;
46613;SDS011;32338;50.430;6.806;2023-03-16T05:55:23;7.13;;;4.80;;
46613;SDS011;32338;50.430;6.806;2023-03-16T05:57:51;6.00;;;5.00;;
46613;SDS011;32338;50.430;6.806;2023-03-16T06:00:18;7.65;;;5.50;;
46613;SDS011;32338;50.430;6.806;2023-03-16T06:02:47;7.28;;;4.90;;
46613;SDS011;32338;50.430;6.806;2023-03-16T06:05:15;8.20;;;4.97;;
46613;SDS011;32338;50.430;6.806;2023-03-16T06:07:43;8.25;;;5.45;;
46613;SDS011;32338;50.430;6.806;2023-03-16T06:10:10;6.72;;;5.10;;
46613;SDS011;32338;50.430;6.806;2023-03-16T06:12:37;7.63;;;5.25;;
46613;SDS011;32338;50.430;6.806;2023-03-16T06:15:07;8.20;;;5.30;;
46613;SDS011;32338;50.430;6.806;2023-03-16T06:17:35;5.95;;;5.30;;
46613;SDS011;32338;50.430;6.806;2023-03-16T06:20:03;5.93;;;4.80;;
46613;SDS011;32338;50.430;6.806;2023-03-16T06:22:34;6.95;;;5.40;;
46613;SDS011;32338;50.430;6.806;2023-03-16T06:25:01;14.50;;;5.10;;
46613;SDS011;32338;50.430;6.806;2023-03-16T06:27:28;7.10;;;4.80;;
46613;SDS011;32338;50.430;6.806;2023-03-16T06:29:54;8.05;;;4.90;;
46613;SDS011;32338;50.430;6.806;2023-03-16T06:32:23;5.85;;;4.70;;
46613;SDS011;32338;50.430;6.806;2023-03-16T06:34:49;5.65;;;4.72;;
46613;SDS011;32338;50.430;6.806;2023-03-16T06:37:16;7.90;;;5.25;;
46613;SDS011;32338;50.430;6.806;2023-03-16T06:39:43;5.78;;;4.65;;
46613;SDS011;32338;50.430;6.806;2023-03-16T06:42:10;7.15;;;4.70;;
46613;SDS011;32338;50.430;6.806;2023-03-16T06:44:37;5.20;;;4.57;;
46613;SDS011;32338;50.430;6.806;2023-03-16T06:47:04;5.28;;;4.70;;
46613;SDS011;32338;50.430;6.806;2023-03-16T06:49:32;8.18;;;4.88;;
46613;SDS011;32338;50.430;6.806;2023-03-16T06:51:59;7.57;;;4.30;;
46613;SDS011;32338;50.430;6.806;2023-03-16T06:54:27;6.63;;;4.45;;
46613;SDS011;32338;50.430;6.806;2023-03-16T06:56:56;7.40;;;5.10;;
46613;SDS011;32338;50.430;6.806;2023-03-16T06:59:23;5.43;;;4.45;;
46613;SDS011;32338;50.430;6.806;2023-03-16T07:01:49;5.22;;;3.92;;
46613;SDS011;32338;50.430;6.806;2023-03-16T07:04:16;8.27;;;4.05;;
46613;SDS011;32338;50.430;6.806;2023-03-16T07:06:44;4.13;;;3.72;;
46613;SDS011;32338;50.430;6.806;2023-03-16T07:09:11;3.70;;;3.40;;
46613;SDS011;32338;50.430;6.806;2023-03-16T07:11:40;3.90;;;3.45;;
46613;SDS011;32338;50.430;6.806;2023-03-16T07:14:07;8.20;;;3.70;;
46613;SDS011;32338;50.430;6.806;2023-03-16T07:16:33;4.57;;;3.78;;
46613;SDS011;32338;50.430;6.806;2023-03-16T07:19:00;7.13;;;4.57;;
46613;SDS011;32338;50.430;6.806;2023-03-16T07:21:27;7.78;;;3.92;;
46613;SDS011;32338;50.430;6.806;2023-03-16T07:23:55;4.70;;;3.95;;
46613;SDS011;32338;50.430;6.806;2023-03-16T07:26:22;4.85;;;4.10;;
46613;SDS011;32338;50.430;6.806;2023-03-16T07:28:49;8.20;;;4.22;;
46613;SDS011;32338;50.430;6.806;2023-03-16T07:31:15;4.68;;;3.80;;
46613;SDS011;32338;50.430;6.806;2023-03-16T07:33:42;6.47;;;4.00;;
46613;SDS011;32338;50.430;6.806;2023-03-16T07:36:09;5.65;;;4.03;;
46613;SDS011;32338;50.430;6.806;2023-03-16T07:38:36;4.60;;;4.18;;
46613;SDS011;32338;50.430;6.806;2023-03-16T07:41:04;6.95;;;4.22;;
46613;SDS011;32338;50.430;6.806;2023-03-16T07:43:31;6.10;;;4.13;;
46613;SDS011;32338;50.430;6.806;2023-03-16T07:45:58;6.35;;;4.10;;
46613;SDS011;32338;50.430;6.806;2023-03-16T07:48:25;6.32;;;4.00;;
46613;SDS011;32338;50.430;6.806;2023-03-16T07:50:52;5.22;;;3.85;;
46613;SDS011;32338;50.430;6.806;2023-03-16T07:53:19;6.43;;;4.00;;
46613;SDS011;32338;50.430;6.806;2023-03-16T07:55:46;4.78;;;3.67;;
46613;SDS011;32338;50.430;6.806;2023-03-16T07:58:15;4.57;;;3.30;;
46613;SDS011;32338;50.430;6.806;2023-03-16T08:00:42;3.42;;;3.10;;
46613;SDS011;32338;50.430;6.806;2023-03-16T08:03:09;4.80;;;3.33;;
46613;SDS011;32338;50.430;6.806;2023-03-16T08:05:35;5.85;;;3.38;;
46613;SDS011;32338;50.430;6.806;2023-03-16T08:08:02;5.65;;;3.25;;
46613;SDS011;32338;50.430;6.806;2023-03-16T08:10:29;5.07;;;3.33;;
46613;SDS011;32338;50.430;6.806;2023-03-16T08:12:57;4.55;;;3.40;;
46613;SDS011;32338;50.430;6.806;2023-03-16T08:15:26;4.40;;;3.33;;
46613;SDS011;32338;50.430;6.806;2023-03-16T08:17:52;3.33;;;2.80;;
46613;SDS011;32338;50.430;6.806;2023-03-16T08:20:19;5.45;;;3.17;;
46613;SDS011;32338;50.430;6.806;2023-03-16T08:22:46;3.38;;;3.00;;
46613;SDS011;32338;50.430;6.806;2023-03-16T08:25:14;3.38;;;2.72;;
46613;SDS011;32338;50.430;6.806;2023-03-16T08:27:43;4.60;;;2.80;;
46613;SDS011;32338;50.430;6.806;2023-03-16T08:30:11;3.90;;;3.05;;
46613;SDS011;32338;50.430;6.806;2023-03-16T08:32:41;3.00;;;2.70;;
46613;SDS011;32338;50.430;6.806;2023-03-16T08:35:09;3.97;;;2.90;;
46613;SDS011;32338;50.430;6.806;2023-03-16T08:37:38;6.32;;;3.17;;
46613;SDS011;32338;50.430;6.806;2023-03-16T08:40:06;5.68;;;3.00;;
46613;SDS011;32338;50.430;6.806;2023-03-16T08:42:35;6.13;;;3.25;;
46613;SDS011;32338;50.430;6.806;2023-03-16T08:45:03;5.15;;;2.50;;
46613;SDS011;32338;50.430;6.806;2023-03-16T08:47:33;3.38;;;2.70;;
46613;SDS011;32338;50.430;6.806;2023-03-16T08:50:02;3.53;;;3.17;;
46613;SDS011;32338;50.430;6.806;2023-03-16T08:52:30;3.08;;;2.13;;
46613;SDS011;32338;50.430;6.806;2023-03-16T08:54:57;3.92;;;2.38;;
46613;SDS011;32338;50.430;6.806;2023-03-16T08:57:24;4.75;;;2.50;;
46613;SDS011;32338;50.430;6.806;2023-03-16T08:59:51;3.55;;;2.45;;
46613;SDS011;32338;50.430;6.806;2023-03-16T09:02:18;2.42;;;2.22;;
46613;SDS011;32338;50.430;6.806;2023-03-16T09:04:44;2.20;;;2.00;;
46613;SDS011;32338;50.430;6.806;2023-03-16T09:07:12;2.65;;;2.28;;
46613;SDS011;32338;50.430;6.806;2023-03-16T09:09:39;5.13;;;2.60;;
46613;SDS011;32338;50.430;6.806;2023-03-16T09:12:06;6.53;;;1.92;;
46613;SDS011;32338;50.430;6.806;2023-03-16T09:14:33;4.57;;;2.13;;
46613;SDS011;32338;50.430;6.806;2023-03-16T09:17:01;2.28;;;1.88;;
46613;SDS011;32338;50.430;6.806;2023-03-16T09:19:29;4.75;;;2.10;;
46613;SDS011;32338;50.430;6.806;2023-03-16T09:21:58;3.47;;;2.00;;
46613;SDS011;32338;50.430;6.806;2023-03-16T09:24:26;5.88;;;2.00;;
46613;SDS011;32338;50.430;6.806;2023-03-16T09:26:53;5.10;;;1.70;;
46613;SDS011;32338;50.430;6.806;2023-03-16T09:29:20;5.93;;;1.83;;
46613;SDS011;32338;50.430;6.806;2023-03-16T09:31:47;4.10;;;1.75;;
46613;SDS011;32338;50.430;6.806;2023-03-16T09:34:14;2.28;;;1.55;;
46613;SDS011;32338;50.430;6.806;2023-03-16T09:36:41;2.22;;;1.83;;
46613;SDS011;32338;50.430;6.806;2023-03-16T09:39:08;3.85;;;1.88;;
46613;SDS011;32338;50.430;6.806;2023-03-16T09:41:40;3.30;;;1.60;;
46613;SDS011;32338;50.430;6.806;2023-03-16T09:44:17;3.35;;;2.05;;
46613;SDS011;32338;50.430;6.806;2023-03-16T09:46:53;4.15;;;1.67;;
46613;SDS011;32338;50.430;6.806;2023-03-16T09:49:22;2.53;;;1.50;;
46613;SDS011;32338;50.430;6.806;2023-03-16T09:51:53;2.38;;;1.40;;
46613;SDS011;32338;50.430;6.806;2023-03-16T09:54:26;5.82;;;1.40;;
46613;SDS011;32338;50.430;6.806;2023-03-16T09:57:04;4.38;;;1.77;;
46613;SDS011;32338;50.430;6.806;2023-03-16T09:59:40;2.28;;;1.45;;
46613;SDS011;32338;50.430;6.806;2023-03-16T10:02:15;2.83;;;1.60;;
46613;SDS011;32338;50.430;6.806;2023-03-16T10:04:58;3.83;;;1.35;;
46613;SDS011;32338;50.430;6.806;2023-03-16T10:07:34;5.13;;;1.55;;
46613;SDS011;32338;50.430;6.806;2023-03-16T10:10:14;3.78;;;1.55;;
46613;SDS011;32338;50.430;6.806;2023-03-16T10:12:51;2.80;;;1.52;;
46613;SDS011;32338;50.430;6.806;2023-03-16T10:15:24;2.33;;;1.30;;
46613;SDS011;32338;50.430;6.806;2023-03-16T10:17:53;2.75;;;1.10;;
46613;SDS011;32338;50.430;6.806;2023-03-16T10:20:26;4.05;;;1.50;;
46613;SDS011;32338;50.430;6.806;2023-03-16T10:22:57;1.60;;;1.02;;
46613;SDS011;32338;50.430;6.806;2023-03-16T10:25:26;3.38;;;1.23;;
46613;SDS011;32338;50.430;6.806;2023-03-16T10:28:02;2.60;;;1.10;;
46613;SDS011;32338;50.430;6.806;2023-03-16T10:30:30;1.88;;;1.25;;
46613;SDS011;32338;50.430;6.806;2023-03-16T10:32:59;2.28;;;1.10;;
46613;SDS011;32338;50.430;6.806;2023-03-16T10:35:33;2.70;;;1.25;;
46613;SDS011;32338;50.430;6.806;2023-03-16T10:38:06;2.17;;;1.00;;
46613;SDS011;32338;50.430;6.806;2023-03-16T10:40:35;2.53;;;0.90;;
46613;SDS011;32338;50.430;6.806;2023-03-16T10:43:05;1.95;;;0.80;;
46613;SDS011;32338;50.430;6.806;2023-03-16T10:45:33;2.90;;;0.95;;
46613;SDS011;32338;50.430;6.806;2023-03-16T10:48:04;3.85;;;0.90;;
46613;SDS011;32338;50.430;6.806;2023-03-16T10:50:32;4.10;;;1.00;;
46613;SDS011;32338;50.430;6.806;2023-03-16T10:52:58;3.08;;;0.80;;
46613;SDS011;32338;50.430;6.806;2023-03-16T10:55:27;2.33;;;0.82;;
46613;SDS011;32338;50.430;6.806;2023-03-16T10:57:59;4.53;;;0.80;;
46613;SDS011;32338;50.430;6.806;2023-03-16T11:00:28;3.05;;;0.82;;
46613;SDS011;32338;50.430;6.806;2023-03-16T11:02:55;2.35;;;0.80;;
46613;SDS011;32338;50.430;6.806;2023-03-16T11:05:25;3.05;;;1.00;;
46613;SDS011;32338;50.430;6.806;2023-03-16T11:07:57;1.80;;;0.70;;
46613;SDS011;32338;50.430;6.806;2023-03-16T11:10:30;1.30;;;0.70;;
46613;SDS011;32338;50.430;6.806;2023-03-16T11:13:07;1.70;;;0.90;;
46613;SDS011;32338;50.430;6.806;2023-03-16T11:15:42;3.55;;;0.93;;
46613;SDS011;32338;50.430;6.806;2023-03-16T11:18:19;1.80;;;0.50;;
46613;SDS011;32338;50.430;6.806;2023-03-16T11:20:55;2.65;;;0.40;;
46613;SDS011;32338;50.430;6.806;2023-03-16T11:23:28;1.98;;;0.50;;
46613;SDS011;32338;50.430;6.806;2023-03-16T11:25:59;3.10;;;0.55;;
46613;SDS011;32338;50.430;6.806;2023-03-16T11:28:33;1.30;;;0.47;;
46613;SDS011;32338;50.430;6.806;2023-03-16T11:31:07;1.33;;;0.30;;
46613;SDS011;32338;50.430;6.806;2023-03-16T11:33:44;5.95;;;0.50;;
46613;SDS011;32338;50.430;6.806;2023-03-16T11:36:16;1.27;;;0.45;;
46613;SDS011;32338;50.430;6.806;2023-03-16T11:39:00;1.23;;;0.68;;
46613;SDS011;32338;50.430;6.806;2023-03-16T11:41:37;1.65;;;0.50;;
46613;SDS011;32338;50.430;6.806;2023-03-16T11:44:14;3.03;;;0.43;;
46613;SDS011;32338;50.430;6.806;2023-03-16T11:46:50;1.85;;;0.52;;
46613;SDS011;32338;50.430;6.806;2023-03-16T11:49:29;3.42;;;0.45;;
46613;SDS011;32338;50.430;6.806;2023-03-16T11:52:07;2.22;;;0.45;;
46613;SDS011;32338;50.430;6.806;2023-03-16T11:54:43;2.60;;;0.52;;
46613;SDS011;32338;50.430;6.806;2023-03-16T11:57:27;3.78;;;0.50;;
46613;SDS011;32338;50.430;6.806;2023-03-16T12:00:06;1.38;;;0.40;;
46613;SDS011;32338;50.430;6.806;2023-03-16T12:02:46;0.45;;;0.38;;
46613;SDS011;32338;50.430;6.806;2023-03-16T12:05:53;1.38;;;0.50;;
46613;SDS011;32338;50.430;6.806;2023-03-16T12:08:27;0.75;;;0.47;;
46613;SDS011;32338;50.430;6.806;2023-03-16T12:11:06;2.45;;;0.60;;
46613;SDS011;32338;50.430;6.806;2023-03-16T12:13:52;1.10;;;0.50;;
46613;SDS011;32338;50.430;6.806;2023-03-16T12:16:26;1.13;;;0.30;;
46613;SDS011;32338;50.430;6.806;2023-03-16T12:18:59;0.70;;;0.40;;
46613;SDS011;32338;50.430;6.806;2023-03-16T12:21:29;0.77;;;0.40;;
46613;SDS011;32338;50.430;6.806;2023-03-16T12:23:59;1.25;;;0.40;;
46613;SDS011;32338;50.430;6.806;2023-03-16T12:26:30;1.00;;;0.40;;
46613;SDS011;32338;50.430;6.806;2023-03-16T12:29:02;2.05;;;0.40;;
46613;SDS011;32338;50.430;6.806;2023-03-16T12:31:40;0.95;;;0.40;;
46613;SDS011;32338;50.430;6.806;2023-03-16T12:34:17;1.75;;;0.70;;
46613;SDS011;32338;50.430;6.806;2023-03-16T12:36:58;2.08;;;0.50;;
46613;SDS011;32338;50.430;6.806;2023-03-16T12:39:35;5.20;;;0.68;;
46613;SDS011;32338;50.430;6.806;2023-03-16T12:45:22;2.22;;;0.60;;
46613;SDS011;32338;50.430;6.806;2023-03-16T12:47:59;1.52;;;0.50;;
46613;SDS011;32338;50.430;6.806;2023-03-16T12:50:45;2.15;;;0.50;;
46613;SDS011;32338;50.430;6.806;2023-03-16T12:53:23;1.95;;;0.60;;
46613;SDS011;32338;50.430;6.806;2023-03-16T12:55:52;2.25;;;0.40;;
46613;SDS011;32338;50.430;6.806;2023-03-16T12:58:20;5.63;;;0.60;;
46613;SDS011;32338;50.430;6.806;2023-03-16T13:00:53;1.75;;;0.50;;
46613;SDS011;32338;50.430;6.806;2023-03-16T13:03:23;0.80;;;0.50;;
46613;SDS011;32338;50.430;6.806;2023-03-16T13:05:55;3.42;;;0.65;;
46613;SDS011;32338;50.430;6.806;2023-03-16T13:08:26;1.17;;;0.50;;
46613;SDS011;32338;50.430;6.806;2023-03-16T13:10:58;2.63;;;0.50;;
46613;SDS011;32338;50.430;6.806;2023-03-16T13:13:27;0.90;;;0.50;;
46613;SDS011;32338;50.430;6.806;2023-03-16T13:16:01;2.33;;;0.38;;
46613;SDS011;32338;50.430;6.806;2023-03-16T13:18:33;2.70;;;0.50;;
46613;SDS011;32338;50.430;6.806;2023-03-16T13:21:13;1.38;;;0.60;;
46613;SDS011;32338;50.430;6.806;2023-03-16T13:26:39;2.88;;;0.65;;
46613;SDS011;32338;50.430;6.806;2023-03-16T13:29:20;1.98;;;0.43;;
46613;SDS011;32338;50.430;6.806;2023-03-16T13:31:49;3.72;;;0.60;;
46613;SDS011;32338;50.430;6.806;2023-03-16T13:34:21;1.65;;;0.50;;
46613;SDS011;32338;50.430;6.806;2023-03-16T13:36:52;2.67;;;0.40;;
46613;SDS011;32338;50.430;6.806;2023-03-16T13:39:23;2.17;;;0.75;;
46613;SDS011;32338;50.430;6.806;2023-03-16T13:41:56;1.10;;;0.47;;
46613;SDS011;32338;50.430;6.806;2023-03-16T13:44:25;1.15;;;0.50;;
46613;SDS011;32338;50.430;6.806;2023-03-16T13:46:56;1.60;;;0.63;;
46613;SDS011;32338;50.430;6.806;2023-03-16T13:49:29;0.95;;;0.60;;
46613;SDS011;32338;50.430;6.806;2023-03-16T13:51:57;1.08;;;0.43;;
46613;SDS011;32338;50.430;6.806;2023-03-16T13:54:24;2.25;;;0.50;;
46613;SDS011;32338;50.430;6.806;2023-03-16T13:56:54;2.92;;;0.80;;
46613;SDS011;32338;50.430;6.806;2023-03-16T13:59:27;1.63;;;0.50;;
46613;SDS011;32338;50.430;6.806;2023-03-16T14:01:55;0.68;;;0.43;;
46613;SDS011;32338;50.430;6.806;2023-03-16T14:04:24;2.83;;;0.60;;
46613;SDS011;32338;50.430;6.806;2023-03-16T14:06:53;5.68;;;0.73;;
46613;SDS011;32338;50.430;6.806;2023-03-16T14:09:23;0.43;;;0.43;;
46613;SDS011;32338;50.430;6.806;2023-03-16T14:11:52;1.48;;;0.60;;
46613;SDS011;32338;50.430;6.806;2023-03-16T14:14:23;1.70;;;0.40;;
46613;SDS011;32338;50.430;6.806;2023-03-16T14:16:53;3.60;;;0.80;;
46613;SDS011;32338;50.430;6.806;2023-03-16T14:19:26;2.10;;;0.70;;
46613;SDS011;32338;50.430;6.806;2023-03-16T14:22:00;1.95;;;0.57;;
46613;SDS011;32338;50.430;6.806;2023-03-16T14:24:29;0.55;;;0.55;;
46613;SDS011;32338;50.430;6.806;2023-03-16T14:27:07;2.15;;;0.50;;
46613;SDS011;32338;50.430;6.806;2023-03-16T14:29:40;1.55;;;0.50;;
46613;SDS011;32338;50.430;6.806;2023-03-16T14:32:18;1.35;;;0.57;;
46613;SDS011;32338;50.430;6.806;2023-03-16T14:34:47;1.05;;;0.30;;
46613;SDS011;32338;50.430;6.806;2023-03-16T14:37:15;1.95;;;0.68;;
46613;SDS011;32338;50.430;6.806;2023-03-16T14:39:44;0.75;;;0.40;;
46613;SDS011;32338;50.430;6.806;2023-03-16T14:42:13;1.00;;;0.45;;
46613;SDS011;32338;50.430;6.806;2023-03-16T14:44:44;1.95;;;0.77;;
46613;SDS011;32338;50.430;6.806;2023-03-16T14:47:14;0.82;;;0.40;;
46613;SDS011;32338;50.430;6.806;2023-03-16T14:49:46;1.50;;;0.32;;
46613;SDS011;32338;50.430;6.806;2023-03-16T14:52:15;1.13;;;0.50;;
46613;SDS011;32338;50.430;6.806;2023-03-16T14:54:49;1.45;;;0.43;;
46613;SDS011;32338;50.430;6.806;2023-03-16T14:57:16;0.77;;;0.43;;
46613;SDS011;32338;50.430;6.806;2023-03-16T14:59:43;1.35;;;0.40;;
46613;SDS011;32338;50.430;6.806;2023-03-16T15:02:12;1.23;;;0.50;;
46613;SDS011;32338;50.430;6.806;2023-03-16T15:04:43;1.13;;;0.52;;
46613;SDS011;32338;50.430;6.806;2023-03-16T15:07:17;1.50;;;0.68;;
46613;SDS011;32338;50.430;6.806;2023-03-16T15:09:53;2.97;;;0.63;;
46613;SDS011;32338;50.430;6.806;2023-03-16T15:12:22;2.42;;;0.47;;